sensor_id;sensor_type;location;lat;lon;timestamp;P1;durP1;ratioP1;P2;durP2;ratioP2
26696;SDS011;14312;52.614;13.496;2023-05-27T00:02:20;2.70;;;1.90;;
26696;SDS011;14312;52.614;13.496;2023-05-27T00:05:06;2.45;;;2.05;;
26696;SDS011;14312;52.614;13.496;2023-05-27T00:07:52;2.08;;;1.42;;
26696;SDS011;14312;52.614;13.496;2023-05-27T00:10:38;2.90;;;2.00;;
26696;SDS011;14312;52.614;13.496;2023-05-27T00:13:24;2.72;;;2.00;;
26696;SDS011;14312;52.614;13.496;2023-05-27T00:16:10;2.13;;;1.70;;
26696;SDS011;14312;52.614;13.496;2023-05-27T00:18:57;3.85;;;1.83;;
26696;SDS011;14312;52.614;13.496;2023-05-27T00:21:43;3.22;;;1.98;;
26696;SDS011;14312;52.614;13.496;2023-05-27T00:24:29;2.25;;;1.85;;
26696;SDS011;14312;52.614;13.496;2023-05-27T00:27:15;2.70;;;1.85;;
26696;SDS011;14312;52.614;13.496;2023-05-27T00:30:01;3.30;;;1.83;;
26696;SDS011;14312;52.614;13.496;2023-05-27T00:32:48;4.75;;;1.75;;
26696;SDS011;14312;52.614;13.496;2023-05-27T00:35:34;2.60;;;1.73;;
26696;SDS011;14312;52.614;13.496;2023-05-27T00:38:20;2.42;;;1.73;;
26696;SDS011;14312;52.614;13.496;2023-05-27T00:41:06;2.78;;;1.80;;
26696;SDS011;14312;52.614;13.496;2023-05-27T00:43:53;3.67;;;2.30;;
26696;SDS011;14312;52.614;13.496;2023-05-27T00:46:41;2.33;;;1.92;;
26696;SDS011;14312;52.614;13.496;2023-05-27T00:49:27;3.92;;;1.95;;
26696;SDS011;14312;52.614;13.496;2023-05-27T00:52:13;3.67;;;1.98;;
26696;SDS011;14312;52.614;13.496;2023-05-27T00:54:59;3.30;;;1.80;;
26696;SDS011;14312;52.614;13.496;2023-05-27T00:57:45;3.05;;;1.80;;
26696;SDS011;14312;52.614;13.496;2023-05-27T01:00:31;2.85;;;1.83;;
26696;SDS011;14312;52.614;13.496;2023-05-27T01:03:17;3.17;;;1.77;;
26696;SDS011;14312;52.614;13.496;2023-05-27T01:06:08;4.47;;;1.77;;
26696;SDS011;14312;52.614;13.496;2023-05-27T01:11:57;2.47;;;1.70;;
26696;SDS011;14312;52.614;13.496;2023-05-27T01:14:49;4.05;;;1.83;;
26696;SDS011;14312;52.614;13.496;2023-05-27T01:17:37;3.38;;;2.00;;
26696;SDS011;14312;52.614;13.496;2023-05-27T01:20:28;2.60;;;1.48;;
26696;SDS011;14312;52.614;13.496;2023-05-27T01:23:14;3.00;;;1.77;;
26696;SDS011;14312;52.614;13.496;2023-05-27T01:26:01;2.60;;;1.80;;
26696;SDS011;14312;52.614;13.496;2023-05-27T01:28:47;3.08;;;2.03;;
26696;SDS011;14312;52.614;13.496;2023-05-27T01:31:39;2.63;;;1.98;;
26696;SDS011;14312;52.614;13.496;2023-05-27T01:34:31;3.08;;;1.90;;
26696;SDS011;14312;52.614;13.496;2023-05-27T01:37:21;2.28;;;1.60;;
26696;SDS011;14312;52.614;13.496;2023-05-27T01:40:11;2.83;;;1.70;;
26696;SDS011;14312;52.614;13.496;2023-05-27T01:43:00;3.08;;;1.70;;
26696;SDS011;14312;52.614;13.496;2023-05-27T01:45:46;2.58;;;1.70;;
26696;SDS011;14312;52.614;13.496;2023-05-27T01:48:33;2.92;;;1.63;;
26696;SDS011;14312;52.614;13.496;2023-05-27T01:51:19;1.83;;;1.63;;
26696;SDS011;14312;52.614;13.496;2023-05-27T01:54:05;2.25;;;1.52;;
26696;SDS011;14312;52.614;13.496;2023-05-27T01:56:51;2.35;;;1.40;;
26696;SDS011;14312;52.614;13.496;2023-05-27T01:59:38;2.13;;;1.52;;
26696;SDS011;14312;52.614;13.496;2023-05-27T02:02:24;2.05;;;1.60;;
26696;SDS011;14312;52.614;13.496;2023-05-27T02:05:10;2.92;;;1.63;;
26696;SDS011;14312;52.614;13.496;2023-05-27T02:07:56;2.22;;;1.48;;
26696;SDS011;14312;52.614;13.496;2023-05-27T02:10:42;2.70;;;1.63;;
26696;SDS011;14312;52.614;13.496;2023-05-27T02:13:28;2.03;;;1.60;;
26696;SDS011;14312;52.614;13.496;2023-05-27T02:16:14;3.10;;;1.60;;
26696;SDS011;14312;52.614;13.496;2023-05-27T02:19:00;2.55;;;1.75;;
26696;SDS011;14312;52.614;13.496;2023-05-27T02:21:46;3.13;;;1.92;;
26696;SDS011;14312;52.614;13.496;2023-05-27T02:24:32;2.08;;;1.63;;
26696;SDS011;14312;52.614;13.496;2023-05-27T02:27:18;2.28;;;1.88;;
26696;SDS011;14312;52.614;13.496;2023-05-27T02:30:04;3.03;;;1.85;;
26696;SDS011;14312;52.614;13.496;2023-05-27T02:32:51;2.53;;;1.90;;
26696;SDS011;14312;52.614;13.496;2023-05-27T02:35:37;2.70;;;1.60;;
26696;SDS011;14312;52.614;13.496;2023-05-27T02:38:23;2.47;;;1.80;;
26696;SDS011;14312;52.614;13.496;2023-05-27T02:41:09;2.47;;;1.75;;
26696;SDS011;14312;52.614;13.496;2023-05-27T02:43:55;2.40;;;1.75;;
26696;SDS011;14312;52.614;13.496;2023-05-27T02:46:41;2.65;;;1.88;;
26696;SDS011;14312;52.614;13.496;2023-05-27T02:49:27;3.10;;;1.65;;
26696;SDS011;14312;52.614;13.496;2023-05-27T02:52:13;2.33;;;1.85;;
26696;SDS011;14312;52.614;13.496;2023-05-27T02:54:58;4.65;;;1.77;;
26696;SDS011;14312;52.614;13.496;2023-05-27T02:57:44;3.47;;;2.38;;
26696;SDS011;14312;52.614;13.496;2023-05-27T03:00:32;2.42;;;1.83;;
26696;SDS011;14312;52.614;13.496;2023-05-27T03:03:18;1.90;;;1.70;;
26696;SDS011;14312;52.614;13.496;2023-05-27T03:06:04;4.45;;;2.40;;
26696;SDS011;14312;52.614;13.496;2023-05-27T03:08:51;3.60;;;1.80;;
26696;SDS011;14312;52.614;13.496;2023-05-27T03:11:36;2.42;;;1.80;;
26696;SDS011;14312;52.614;13.496;2023-05-27T03:14:22;2.90;;;1.73;;
26696;SDS011;14312;52.614;13.496;2023-05-27T03:17:08;2.60;;;1.83;;
26696;SDS011;14312;52.614;13.496;2023-05-27T03:19:54;2.63;;;2.00;;
26696;SDS011;14312;52.614;13.496;2023-05-27T03:22:41;2.45;;;1.77;;
26696;SDS011;14312;52.614;13.496;2023-05-27T03:25:27;2.80;;;2.00;;
26696;SDS011;14312;52.614;13.496;2023-05-27T03:28:14;2.75;;;1.90;;
26696;SDS011;14312;52.614;13.496;2023-05-27T03:31:01;1.98;;;1.63;;
26696;SDS011;14312;52.614;13.496;2023-05-27T03:33:49;2.47;;;1.80;;
26696;SDS011;14312;52.614;13.496;2023-05-27T03:36:38;2.65;;;2.00;;
26696;SDS011;14312;52.614;13.496;2023-05-27T03:39:24;2.53;;;1.90;;
26696;SDS011;14312;52.614;13.496;2023-05-27T03:42:10;1.92;;;1.70;;
26696;SDS011;14312;52.614;13.496;2023-05-27T03:44:56;2.10;;;1.50;;
26696;SDS011;14312;52.614;13.496;2023-05-27T03:47:42;2.08;;;1.58;;
26696;SDS011;14312;52.614;13.496;2023-05-27T03:50:28;1.45;;;1.35;;
26696;SDS011;14312;52.614;13.496;2023-05-27T03:53:14;1.90;;;1.40;;
26696;SDS011;14312;52.614;13.496;2023-05-27T03:56:00;1.70;;;1.60;;
26696;SDS011;14312;52.614;13.496;2023-05-27T03:58:45;2.75;;;1.50;;
26696;SDS011;14312;52.614;13.496;2023-05-27T04:01:32;2.47;;;1.70;;
26696;SDS011;14312;52.614;13.496;2023-05-27T04:04:18;1.83;;;1.35;;
26696;SDS011;14312;52.614;13.496;2023-05-27T04:07:04;2.60;;;1.67;;
26696;SDS011;14312;52.614;13.496;2023-05-27T04:09:50;2.00;;;1.50;;
26696;SDS011;14312;52.614;13.496;2023-05-27T04:12:35;2.03;;;1.60;;
26696;SDS011;14312;52.614;13.496;2023-05-27T04:15:21;2.20;;;1.83;;
26696;SDS011;14312;52.614;13.496;2023-05-27T04:18:07;2.95;;;1.80;;
26696;SDS011;14312;52.614;13.496;2023-05-27T04:20:53;2.50;;;1.80;;
26696;SDS011;14312;52.614;13.496;2023-05-27T04:23:39;2.55;;;1.88;;
26696;SDS011;14312;52.614;13.496;2023-05-27T04:26:25;3.03;;;1.95;;
26696;SDS011;14312;52.614;13.496;2023-05-27T04:29:12;3.80;;;2.20;;
26696;SDS011;14312;52.614;13.496;2023-05-27T04:31:57;2.33;;;2.05;;
26696;SDS011;14312;52.614;13.496;2023-05-27T04:34:44;2.80;;;2.10;;
26696;SDS011;14312;52.614;13.496;2023-05-27T04:37:30;4.63;;;2.25;;
26696;SDS011;14312;52.614;13.496;2023-05-27T04:40:15;3.83;;;2.15;;
26696;SDS011;14312;52.614;13.496;2023-05-27T04:43:02;5.72;;;2.40;;
26696;SDS011;14312;52.614;13.496;2023-05-27T04:45:47;4.55;;;2.30;;
26696;SDS011;14312;52.614;13.496;2023-05-27T04:48:34;3.22;;;1.90;;
26696;SDS011;14312;52.614;13.496;2023-05-27T04:51:21;2.72;;;2.03;;
26696;SDS011;14312;52.614;13.496;2023-05-27T04:54:08;4.28;;;2.08;;
26696;SDS011;14312;52.614;13.496;2023-05-27T04:56:54;2.45;;;1.95;;
26696;SDS011;14312;52.614;13.496;2023-05-27T04:59:40;3.55;;;1.92;;
26696;SDS011;14312;52.614;13.496;2023-05-27T05:02:44;2.72;;;2.03;;
26696;SDS011;14312;52.614;13.496;2023-05-27T05:05:32;2.53;;;2.13;;
26696;SDS011;14312;52.614;13.496;2023-05-27T05:08:21;3.53;;;2.00;;
26696;SDS011;14312;52.614;13.496;2023-05-27T05:11:07;3.88;;;2.30;;
26696;SDS011;14312;52.614;13.496;2023-05-27T05:13:53;3.03;;;2.10;;
26696;SDS011;14312;52.614;13.496;2023-05-27T05:16:39;3.40;;;2.10;;
26696;SDS011;14312;52.614;13.496;2023-05-27T05:19:25;4.28;;;2.10;;
26696;SDS011;14312;52.614;13.496;2023-05-27T05:22:11;3.22;;;1.90;;
26696;SDS011;14312;52.614;13.496;2023-05-27T05:25:00;2.00;;;1.58;;
26696;SDS011;14312;52.614;13.496;2023-05-27T05:27:46;2.30;;;1.65;;
26696;SDS011;14312;52.614;13.496;2023-05-27T05:30:32;3.13;;;2.15;;
26696;SDS011;14312;52.614;13.496;2023-05-27T05:33:18;3.60;;;2.08;;
26696;SDS011;14312;52.614;13.496;2023-05-27T05:36:04;2.72;;;1.80;;
26696;SDS011;14312;52.614;13.496;2023-05-27T05:38:50;1.58;;;1.45;;
26696;SDS011;14312;52.614;13.496;2023-05-27T05:41:36;3.13;;;2.20;;
26696;SDS011;14312;52.614;13.496;2023-05-27T05:44:22;3.78;;;1.88;;
26696;SDS011;14312;52.614;13.496;2023-05-27T05:47:08;3.00;;;1.80;;
26696;SDS011;14312;52.614;13.496;2023-05-27T05:49:54;3.20;;;1.98;;
26696;SDS011;14312;52.614;13.496;2023-05-27T05:52:40;4.30;;;1.95;;
26696;SDS011;14312;52.614;13.496;2023-05-27T05:55:26;2.65;;;1.52;;
26696;SDS011;14312;52.614;13.496;2023-05-27T05:58:12;3.58;;;1.55;;
26696;SDS011;14312;52.614;13.496;2023-05-27T06:00:58;2.70;;;1.40;;
26696;SDS011;14312;52.614;13.496;2023-05-27T06:03:44;2.53;;;1.35;;
26696;SDS011;14312;52.614;13.496;2023-05-27T06:06:30;1.60;;;1.35;;
26696;SDS011;14312;52.614;13.496;2023-05-27T06:09:16;1.80;;;1.20;;
26696;SDS011;14312;52.614;13.496;2023-05-27T06:12:02;2.10;;;1.20;;
26696;SDS011;14312;52.614;13.496;2023-05-27T06:14:48;1.75;;;1.00;;
26696;SDS011;14312;52.614;13.496;2023-05-27T06:17:34;1.50;;;1.25;;
26696;SDS011;14312;52.614;13.496;2023-05-27T06:20:20;1.25;;;1.10;;
26696;SDS011;14312;52.614;13.496;2023-05-27T06:23:06;2.10;;;1.00;;
26696;SDS011;14312;52.614;13.496;2023-05-27T06:25:52;1.15;;;0.90;;
26696;SDS011;14312;52.614;13.496;2023-05-27T06:28:38;1.73;;;1.08;;
26696;SDS011;14312;52.614;13.496;2023-05-27T06:31:24;1.63;;;1.13;;
26696;SDS011;14312;52.614;13.496;2023-05-27T06:34:12;1.90;;;1.10;;
26696;SDS011;14312;52.614;13.496;2023-05-27T06:36:58;1.50;;;1.00;;
26696;SDS011;14312;52.614;13.496;2023-05-27T06:39:44;1.35;;;0.95;;
26696;SDS011;14312;52.614;13.496;2023-05-27T06:42:30;1.02;;;0.90;;
26696;SDS011;14312;52.614;13.496;2023-05-27T06:45:16;1.38;;;1.00;;
26696;SDS011;14312;52.614;13.496;2023-05-27T06:48:02;0.90;;;0.90;;
26696;SDS011;14312;52.614;13.496;2023-05-27T06:50:48;1.20;;;0.80;;
26696;SDS011;14312;52.614;13.496;2023-05-27T06:53:34;0.98;;;0.90;;
26696;SDS011;14312;52.614;13.496;2023-05-27T06:56:20;1.42;;;0.90;;
26696;SDS011;14312;52.614;13.496;2023-05-27T06:59:06;0.82;;;0.80;;
26696;SDS011;14312;52.614;13.496;2023-05-27T07:01:52;0.98;;;0.88;;
26696;SDS011;14312;52.614;13.496;2023-05-27T07:04:38;1.23;;;1.00;;
26696;SDS011;14312;52.614;13.496;2023-05-27T07:07:24;0.80;;;0.80;;
26696;SDS011;14312;52.614;13.496;2023-05-27T07:10:10;1.02;;;0.88;;
26696;SDS011;14312;52.614;13.496;2023-05-27T07:12:56;0.85;;;0.85;;
26696;SDS011;14312;52.614;13.496;2023-05-27T07:15:42;0.70;;;0.70;;
26696;SDS011;14312;52.614;13.496;2023-05-27T07:18:28;0.90;;;0.80;;
26696;SDS011;14312;52.614;13.496;2023-05-27T07:21:14;1.95;;;1.00;;
26696;SDS011;14312;52.614;13.496;2023-05-27T07:24:00;0.80;;;0.73;;
26696;SDS011;14312;52.614;13.496;2023-05-27T07:26:48;0.73;;;0.65;;
26696;SDS011;14312;52.614;13.496;2023-05-27T07:29:34;1.08;;;0.98;;
26696;SDS011;14312;52.614;13.496;2023-05-27T07:32:20;0.98;;;0.88;;
26696;SDS011;14312;52.614;13.496;2023-05-27T07:35:07;0.93;;;0.88;;
26696;SDS011;14312;52.614;13.496;2023-05-27T07:37:53;0.80;;;0.70;;
26696;SDS011;14312;52.614;13.496;2023-05-27T07:40:39;0.65;;;0.65;;
26696;SDS011;14312;52.614;13.496;2023-05-27T07:43:25;0.98;;;0.80;;
26696;SDS011;14312;52.614;13.496;2023-05-27T07:46:11;1.40;;;0.80;;
26696;SDS011;14312;52.614;13.496;2023-05-27T07:48:58;1.00;;;0.90;;
26696;SDS011;14312;52.614;13.496;2023-05-27T07:51:43;0.57;;;0.57;;
26696;SDS011;14312;52.614;13.496;2023-05-27T07:54:29;1.50;;;0.90;;
26696;SDS011;14312;52.614;13.496;2023-05-27T07:57:15;1.98;;;0.70;;
26696;SDS011;14312;52.614;13.496;2023-05-27T08:00:03;1.45;;;0.80;;
26696;SDS011;14312;52.614;13.496;2023-05-27T08:02:51;0.80;;;0.80;;
26696;SDS011;14312;52.614;13.496;2023-05-27T08:05:37;1.33;;;0.80;;
26696;SDS011;14312;52.614;13.496;2023-05-27T08:08:23;1.00;;;0.90;;
26696;SDS011;14312;52.614;13.496;2023-05-27T08:11:09;1.88;;;0.77;;
26696;SDS011;14312;52.614;13.496;2023-05-27T08:13:55;0.60;;;0.60;;
26696;SDS011;14312;52.614;13.496;2023-05-27T08:16:41;0.82;;;0.82;;
26696;SDS011;14312;52.614;13.496;2023-05-27T08:19:27;0.95;;;0.95;;
26696;SDS011;14312;52.614;13.496;2023-05-27T08:22:14;0.70;;;0.70;;
26696;SDS011;14312;52.614;13.496;2023-05-27T08:25:00;0.60;;;0.60;;
26696;SDS011;14312;52.614;13.496;2023-05-27T08:30:36;0.70;;;0.63;;
26696;SDS011;14312;52.614;13.496;2023-05-27T08:33:22;0.80;;;0.68;;
26696;SDS011;14312;52.614;13.496;2023-05-27T08:36:08;0.88;;;0.77;;
26696;SDS011;14312;52.614;13.496;2023-05-27T08:38:55;0.80;;;0.80;;
26696;SDS011;14312;52.614;13.496;2023-05-27T08:41:41;0.70;;;0.70;;
26696;SDS011;14312;52.614;13.496;2023-05-27T08:44:28;0.90;;;0.70;;
26696;SDS011;14312;52.614;13.496;2023-05-27T08:47:14;0.98;;;0.88;;
26696;SDS011;14312;52.614;13.496;2023-05-27T08:50:01;1.20;;;0.80;;
26696;SDS011;14312;52.614;13.496;2023-05-27T08:52:49;0.85;;;0.82;;
26696;SDS011;14312;52.614;13.496;2023-05-27T08:55:39;0.77;;;0.73;;
26696;SDS011;14312;52.614;13.496;2023-05-27T08:58:27;0.80;;;0.80;;
26696;SDS011;14312;52.614;13.496;2023-05-27T09:01:17;0.70;;;0.70;;
26696;SDS011;14312;52.614;13.496;2023-05-27T09:04:04;1.10;;;0.82;;
26696;SDS011;14312;52.614;13.496;2023-05-27T09:06:50;0.70;;;0.70;;
26696;SDS011;14312;52.614;13.496;2023-05-27T09:09:36;0.93;;;0.82;;
26696;SDS011;14312;52.614;13.496;2023-05-27T09:12:22;1.02;;;0.75;;
26696;SDS011;14312;52.614;13.496;2023-05-27T09:15:10;0.82;;;0.80;;
26696;SDS011;14312;52.614;13.496;2023-05-27T09:17:57;0.85;;;0.85;;
26696;SDS011;14312;52.614;13.496;2023-05-27T09:20:43;0.82;;;0.82;;
26696;SDS011;14312;52.614;13.496;2023-05-27T09:23:29;1.48;;;1.10;;
26696;SDS011;14312;52.614;13.496;2023-05-27T09:26:15;1.10;;;1.00;;
26696;SDS011;14312;52.614;13.496;2023-05-27T09:29:01;1.92;;;1.00;;
26696;SDS011;14312;52.614;13.496;2023-05-27T09:31:52;1.20;;;1.10;;
26696;SDS011;14312;52.614;13.496;2023-05-27T09:34:40;1.48;;;1.02;;
26696;SDS011;14312;52.614;13.496;2023-05-27T09:37:26;1.08;;;0.80;;
26696;SDS011;14312;52.614;13.496;2023-05-27T09:40:17;0.80;;;0.80;;
26696;SDS011;14312;52.614;13.496;2023-05-27T09:43:03;1.10;;;0.90;;
26696;SDS011;14312;52.614;13.496;2023-05-27T09:45:50;0.80;;;0.80;;
26696;SDS011;14312;52.614;13.496;2023-05-27T09:48:38;1.00;;;1.00;;
26696;SDS011;14312;52.614;13.496;2023-05-27T09:51:24;1.30;;;1.00;;
26696;SDS011;14312;52.614;13.496;2023-05-27T09:54:12;0.80;;;0.80;;
26696;SDS011;14312;52.614;13.496;2023-05-27T09:57:04;2.17;;;1.02;;
26696;SDS011;14312;52.614;13.496;2023-05-27T09:59:52;0.70;;;0.70;;
26696;SDS011;14312;52.614;13.496;2023-05-27T10:02:39;1.88;;;0.90;;
26696;SDS011;14312;52.614;13.496;2023-05-27T10:05:28;1.40;;;1.30;;
26696;SDS011;14312;52.614;13.496;2023-05-27T10:08:15;1.00;;;0.90;;
26696;SDS011;14312;52.614;13.496;2023-05-27T10:11:01;1.17;;;1.08;;
26696;SDS011;14312;52.614;13.496;2023-05-27T10:13:48;1.50;;;1.40;;
26696;SDS011;14312;52.614;13.496;2023-05-27T10:16:35;2.72;;;1.65;;
26696;SDS011;14312;52.614;13.496;2023-05-27T10:19:21;1.98;;;1.40;;
26696;SDS011;14312;52.614;13.496;2023-05-27T10:22:08;1.95;;;1.65;;
26696;SDS011;14312;52.614;13.496;2023-05-27T10:25:05;2.60;;;1.50;;
26696;SDS011;14312;52.614;13.496;2023-05-27T10:27:57;1.33;;;1.23;;
26696;SDS011;14312;52.614;13.496;2023-05-27T10:30:43;1.98;;;1.42;;
26696;SDS011;14312;52.614;13.496;2023-05-27T10:33:31;1.55;;;1.13;;
26696;SDS011;14312;52.614;13.496;2023-05-27T10:36:27;1.50;;;1.40;;
26696;SDS011;14312;52.614;13.496;2023-05-27T10:39:18;1.30;;;1.20;;
26696;SDS011;14312;52.614;13.496;2023-05-27T10:42:20;1.80;;;1.33;;
26696;SDS011;14312;52.614;13.496;2023-05-27T10:45:36;1.20;;;1.10;;
26696;SDS011;14312;52.614;13.496;2023-05-27T10:48:27;2.08;;;1.42;;
26696;SDS011;14312;52.614;13.496;2023-05-27T10:51:15;1.45;;;1.23;;
26696;SDS011;14312;52.614;13.496;2023-05-27T10:54:05;1.50;;;1.40;;
26696;SDS011;14312;52.614;13.496;2023-05-27T10:56:52;1.77;;;1.40;;
26696;SDS011;14312;52.614;13.496;2023-05-27T11:02:28;1.40;;;1.30;;
26696;SDS011;14312;52.614;13.496;2023-05-27T11:05:19;1.38;;;1.27;;
26696;SDS011;14312;52.614;13.496;2023-05-27T11:08:05;1.60;;;1.50;;
26696;SDS011;14312;52.614;13.496;2023-05-27T11:10:57;1.98;;;1.60;;
26696;SDS011;14312;52.614;13.496;2023-05-27T11:13:45;1.33;;;1.23;;
26696;SDS011;14312;52.614;13.496;2023-05-27T11:16:32;1.95;;;1.30;;
26696;SDS011;14312;52.614;13.496;2023-05-27T11:19:18;1.35;;;1.25;;
26696;SDS011;14312;52.614;13.496;2023-05-27T11:22:07;1.25;;;1.15;;
26696;SDS011;14312;52.614;13.496;2023-05-27T11:25:00;1.70;;;1.50;;
26696;SDS011;14312;52.614;13.496;2023-05-27T11:27:47;1.40;;;1.17;;
26696;SDS011;14312;52.614;13.496;2023-05-27T11:30:35;1.30;;;1.13;;
26696;SDS011;14312;52.614;13.496;2023-05-27T11:33:29;1.80;;;1.25;;
26696;SDS011;14312;52.614;13.496;2023-05-27T11:36:19;2.60;;;1.08;;
26696;SDS011;14312;52.614;13.496;2023-05-27T11:39:09;1.50;;;1.40;;
26696;SDS011;14312;52.614;13.496;2023-05-27T11:41:57;1.27;;;1.10;;
26696;SDS011;14312;52.614;13.496;2023-05-27T11:44:49;2.95;;;1.17;;
26696;SDS011;14312;52.614;13.496;2023-05-27T11:47:42;2.03;;;0.93;;
26696;SDS011;14312;52.614;13.496;2023-05-27T11:50:28;0.80;;;0.80;;
26696;SDS011;14312;52.614;13.496;2023-05-27T11:53:14;1.75;;;1.00;;
26696;SDS011;14312;52.614;13.496;2023-05-27T11:56:01;1.15;;;1.05;;
26696;SDS011;14312;52.614;13.496;2023-05-27T11:58:47;1.10;;;1.00;;
26696;SDS011;14312;52.614;13.496;2023-05-27T12:01:33;1.90;;;1.27;;
26696;SDS011;14312;52.614;13.496;2023-05-27T12:04:19;1.20;;;1.10;;
26696;SDS011;14312;52.614;13.496;2023-05-27T12:07:05;1.08;;;0.85;;
26696;SDS011;14312;52.614;13.496;2023-05-27T12:09:51;1.20;;;1.10;;
26696;SDS011;14312;52.614;13.496;2023-05-27T12:12:37;1.17;;;0.95;;
26696;SDS011;14312;52.614;13.496;2023-05-27T12:15:24;1.33;;;1.20;;
26696;SDS011;14312;52.614;13.496;2023-05-27T12:18:12;1.00;;;1.00;;
26696;SDS011;14312;52.614;13.496;2023-05-27T12:20:57;1.52;;;1.10;;
26696;SDS011;14312;52.614;13.496;2023-05-27T12:23:43;1.30;;;1.20;;
26696;SDS011;14312;52.614;13.496;2023-05-27T12:26:29;1.17;;;1.08;;
26696;SDS011;14312;52.614;13.496;2023-05-27T12:29:16;1.20;;;1.10;;
26696;SDS011;14312;52.614;13.496;2023-05-27T12:32:02;2.20;;;1.33;;
26696;SDS011;14312;52.614;13.496;2023-05-27T12:34:48;1.50;;;1.30;;
26696;SDS011;14312;52.614;13.496;2023-05-27T12:37:34;1.60;;;1.45;;
26696;SDS011;14312;52.614;13.496;2023-05-27T12:40:20;1.23;;;1.13;;
26696;SDS011;14312;52.614;13.496;2023-05-27T12:43:06;1.30;;;1.20;;
26696;SDS011;14312;52.614;13.496;2023-05-27T12:45:52;1.30;;;1.20;;
26696;SDS011;14312;52.614;13.496;2023-05-27T12:48:38;0.90;;;0.90;;
26696;SDS011;14312;52.614;13.496;2023-05-27T12:51:24;1.20;;;1.10;;
26696;SDS011;14312;52.614;13.496;2023-05-27T12:54:10;1.10;;;1.00;;
26696;SDS011;14312;52.614;13.496;2023-05-27T12:56:57;1.17;;;1.05;;
26696;SDS011;14312;52.614;13.496;2023-05-27T12:59:43;1.55;;;1.25;;
26696;SDS011;14312;52.614;13.496;2023-05-27T13:02:29;2.38;;;1.10;;
26696;SDS011;14312;52.614;13.496;2023-05-27T13:05:16;1.38;;;1.10;;
26696;SDS011;14312;52.614;13.496;2023-05-27T13:08:03;1.25;;;1.00;;
26696;SDS011;14312;52.614;13.496;2023-05-27T13:10:56;1.23;;;1.13;;
26696;SDS011;14312;52.614;13.496;2023-05-27T13:13:42;1.50;;;0.90;;
26696;SDS011;14312;52.614;13.496;2023-05-27T13:16:28;0.98;;;0.98;;
26696;SDS011;14312;52.614;13.496;2023-05-27T13:19:16;1.23;;;1.10;;
26696;SDS011;14312;52.614;13.496;2023-05-27T13:22:02;1.45;;;1.35;;
26696;SDS011;14312;52.614;13.496;2023-05-27T13:24:48;1.60;;;1.20;;
26696;SDS011;14312;52.614;13.496;2023-05-27T13:27:35;1.33;;;1.10;;
26696;SDS011;14312;52.614;13.496;2023-05-27T13:30:21;2.05;;;1.30;;
26696;SDS011;14312;52.614;13.496;2023-05-27T13:33:07;1.63;;;1.30;;
26696;SDS011;14312;52.614;13.496;2023-05-27T13:35:54;1.20;;;1.10;;
26696;SDS011;14312;52.614;13.496;2023-05-27T13:38:41;0.93;;;0.93;;
26696;SDS011;14312;52.614;13.496;2023-05-27T13:41:27;1.08;;;1.00;;
26696;SDS011;14312;52.614;13.496;2023-05-27T13:44:13;1.08;;;1.00;;
26696;SDS011;14312;52.614;13.496;2023-05-27T13:47:00;1.17;;;0.90;;
26696;SDS011;14312;52.614;13.496;2023-05-27T13:49:47;1.20;;;1.10;;
26696;SDS011;14312;52.614;13.496;2023-05-27T13:52:33;1.85;;;1.15;;
26696;SDS011;14312;52.614;13.496;2023-05-27T13:55:19;1.30;;;1.10;;
26696;SDS011;14312;52.614;13.496;2023-05-27T13:58:05;1.42;;;1.10;;
26696;SDS011;14312;52.614;13.496;2023-05-27T14:00:52;1.20;;;1.00;;
26696;SDS011;14312;52.614;13.496;2023-05-27T14:03:38;0.90;;;0.90;;
26696;SDS011;14312;52.614;13.496;2023-05-27T14:06:24;1.10;;;1.00;;
26696;SDS011;14312;52.614;13.496;2023-05-27T14:09:10;1.38;;;0.90;;
26696;SDS011;14312;52.614;13.496;2023-05-27T14:11:56;1.30;;;1.20;;
26696;SDS011;14312;52.614;13.496;2023-05-27T14:14:43;0.95;;;0.95;;
26696;SDS011;14312;52.614;13.496;2023-05-27T14:17:29;1.10;;;1.00;;
26696;SDS011;14312;52.614;13.496;2023-05-27T14:20:15;1.02;;;0.90;;
26696;SDS011;14312;52.614;13.496;2023-05-27T14:23:01;0.98;;;0.98;;
26696;SDS011;14312;52.614;13.496;2023-05-27T14:25:50;0.93;;;0.90;;
26696;SDS011;14312;52.614;13.496;2023-05-27T14:28:36;1.00;;;0.93;;
26696;SDS011;14312;52.614;13.496;2023-05-27T14:31:22;1.50;;;1.20;;
26696;SDS011;14312;52.614;13.496;2023-05-27T14:34:08;1.70;;;1.30;;
26696;SDS011;14312;52.614;13.496;2023-05-27T14:36:54;1.23;;;1.10;;
26696;SDS011;14312;52.614;13.496;2023-05-27T14:39:40;1.60;;;1.20;;
26696;SDS011;14312;52.614;13.496;2023-05-27T14:42:26;1.15;;;1.10;;
26696;SDS011;14312;52.614;13.496;2023-05-27T14:45:12;1.30;;;0.93;;
26696;SDS011;14312;52.614;13.496;2023-05-27T14:47:58;1.08;;;0.98;;
26696;SDS011;14312;52.614;13.496;2023-05-27T14:50:44;1.75;;;1.60;;
26696;SDS011;14312;52.614;13.496;2023-05-27T14:53:30;1.60;;;1.40;;
26696;SDS011;14312;52.614;13.496;2023-05-27T14:56:16;1.35;;;1.10;;
26696;SDS011;14312;52.614;13.496;2023-05-27T14:59:02;1.60;;;1.30;;
26696;SDS011;14312;52.614;13.496;2023-05-27T15:01:48;2.05;;;1.00;;
26696;SDS011;14312;52.614;13.496;2023-05-27T15:04:34;1.23;;;1.13;;
26696;SDS011;14312;52.614;13.496;2023-05-27T15:07:23;1.10;;;1.00;;
26696;SDS011;14312;52.614;13.496;2023-05-27T15:10:09;1.55;;;1.20;;
26696;SDS011;14312;52.614;13.496;2023-05-27T15:12:55;1.08;;;0.90;;
26696;SDS011;14312;52.614;13.496;2023-05-27T15:15:41;1.42;;;1.10;;
26696;SDS011;14312;52.614;13.496;2023-05-27T15:18:29;1.45;;;1.10;;
26696;SDS011;14312;52.614;13.496;2023-05-27T15:21:15;1.08;;;0.98;;
26696;SDS011;14312;52.614;13.496;2023-05-27T15:24:01;1.30;;;1.20;;
26696;SDS011;14312;52.614;13.496;2023-05-27T15:26:48;1.10;;;1.00;;
26696;SDS011;14312;52.614;13.496;2023-05-27T15:29:34;1.20;;;1.05;;
26696;SDS011;14312;52.614;13.496;2023-05-27T15:32:20;1.25;;;1.15;;
26696;SDS011;14312;52.614;13.496;2023-05-27T15:35:06;1.00;;;1.00;;
26696;SDS011;14312;52.614;13.496;2023-05-27T15:37:53;1.00;;;0.90;;
26696;SDS011;14312;52.614;13.496;2023-05-27T15:40:40;0.82;;;0.82;;
26696;SDS011;14312;52.614;13.496;2023-05-27T15:43:27;0.88;;;0.88;;
26696;SDS011;14312;52.614;13.496;2023-05-27T15:46:13;1.15;;;1.05;;
26696;SDS011;14312;52.614;13.496;2023-05-27T15:48:59;0.93;;;0.88;;
26696;SDS011;14312;52.614;13.496;2023-05-27T15:51:45;1.15;;;1.05;;
26696;SDS011;14312;52.614;13.496;2023-05-27T15:54:31;1.20;;;1.10;;
26696;SDS011;14312;52.614;13.496;2023-05-27T15:57:17;2.15;;;1.25;;
26696;SDS011;14312;52.614;13.496;2023-05-27T16:00:04;1.42;;;0.93;;
26696;SDS011;14312;52.614;13.496;2023-05-27T16:02:50;1.35;;;1.25;;
26696;SDS011;14312;52.614;13.496;2023-05-27T16:05:36;1.98;;;1.20;;
26696;SDS011;14312;52.614;13.496;2023-05-27T16:08:22;1.08;;;0.95;;
26696;SDS011;14312;52.614;13.496;2023-05-27T16:11:08;1.75;;;1.35;;
26696;SDS011;14312;52.614;13.496;2023-05-27T16:13:54;1.15;;;0.98;;
26696;SDS011;14312;52.614;13.496;2023-05-27T16:16:41;1.17;;;1.00;;
26696;SDS011;14312;52.614;13.496;2023-05-27T16:19:27;0.85;;;0.82;;
26696;SDS011;14312;52.614;13.496;2023-05-27T16:22:12;1.20;;;1.10;;
26696;SDS011;14312;52.614;13.496;2023-05-27T16:24:58;0.90;;;0.90;;
26696;SDS011;14312;52.614;13.496;2023-05-27T16:27:44;1.08;;;0.98;;
26696;SDS011;14312;52.614;13.496;2023-05-27T16:30:30;1.50;;;1.40;;
26696;SDS011;14312;52.614;13.496;2023-05-27T16:33:16;2.38;;;2.17;;
26696;SDS011;14312;52.614;13.496;2023-05-27T16:36:02;2.30;;;2.05;;
26696;SDS011;14312;52.614;13.496;2023-05-27T16:38:48;1.85;;;1.67;;